AirNav   $300 off a Bose A20 aviation headset
 
 1098 users online  

LS81 Lake Charles Office Heliport
Lake Charles, Louisiana, USA

GOING TO LAKE CHARLES?


FAA INFORMATION EFFECTIVE 28 FEBRUARY 2019

Location

FAA Identifier: LS81
Lat/Long: 30-06-51.7520N / 093-12-43.5520W
30-06.862533N / 093-12.725867W
30.1143756 / -93.2120978
(estimated)
Elevation: 15 ft. / 5 m (estimated)
Variation: 05E (1985)
From city: 2 miles SE of LAKE CHARLES, LA
Time zone: UTC -6 (UTC -5 during Daylight Saving Time)
Zip code: 70607

Heliport Operations

Heliport use: Private use. Permission required prior to landing
Activation date: 03/1991
Control tower: no
ARTCC: HOUSTON CENTER
FSS: DE RIDDER FLIGHT SERVICE STATION
Attendance: UNATNDD
Segmented circle: no

Heliport Communications

WX ASOS at LCH (0.9 nm NW): PHONE 337-477-3371
WX AWOS-3 at CWF (7 nm NE): 120.0 (337-436-3452)
WX AWOS-3PT at UXL (9 nm W): 118.175 (337-558-5321)

Nearby radio navigation aids

VOR radial/distance  VOR name  Freq  Var
LCHr247/5.8LAKE CHARLES VORTAC113.4007E

 
NDB name  Hdg/Dist  Freq  Var  ID
MOSSY180/11.641804ECW -.-. .--
SULPHUR111/11.927804EAUR .- ..- .-.
DE RIDDER167/38.838504EDXB -.. -..- -...

Heliport Services

Runway Information

Helipad H1

Dimensions: 25 x 25 ft. / 8 x 8 m
Surface: concrete
Traffic pattern: leftleft

Heliport Ownership and Management from official FAA records

Ownership: Privately-owned
Owner: TENNESSEE GAS PIPELINE CO.
1115 REGAL ROW
HOUMA, LA 70360
Phone 504-868-6785
SUGAR MILL POINT.
Manager: K. J. CHERAMIE
1115 REGAL ROW
HOUMA, LA 70360
Phone 504-868-6785
SUGAR MILL POINT.

Additional Remarks

A52-H1 128 FT TOWER 3/4 MILE NNW OF HELIPAD.

Instrument Procedures

There are no published instrument procedures at LS81.

Some nearby airports with instrument procedures:

KLCH - Lake Charles Regional Airport (1 nm NW)
KCWF - Chennault International Airport (7 nm NE)
KUXL - Southland Field Airport (9 nm W)
6R1 - Welsh Airport (21 nm E)
5R8 - De Quincy Industrial Airpark (24 nm NW)
 
Loc | Ops | Rwys | IFR | FBO | Links
Com | Nav | Svcs | Stats | Notes
Area around LS81 (Lake Charles Office Heliport)
 
Road maps at: MapQuest Bing Google
 
Aerial photo
No photo
 
Sectional chart

 
Airport distance calculator
Flying to Lake Charles Office Heliport? Find the distance to fly.

From to LS81

Sunrise and sunset
Times for 23-Mar-2019
 Local
(UTC-5)
 Zulu
(UTC)
Morning civil twilight06:5011:50
Sunrise07:1412:14
Sunset19:2500:25
Evening civil twilight19:4900:49

Current date and time
Zulu (UTC)  23-Mar-2019 15:54:07
Local (UTC-5)  23-Mar-2019 10:54:07
 
METAR
KLCH 231453Z 13004KT 8SM CLR 18/16 A3021 RMK AO2 RAE15 SLP238 P0000 60000 T01830161 51019
KCWF 
7nm NE 
231445Z 11004KT 7SM BR SCT001 17/17 A3021
KUXL 
9nm W 
231535Z AUTO 11003KT 10SM CLR 18/18 A3023 RMK AO2 T01800180
TAF
KLCH 231402Z 2314/2412 VRB03KT 5SM BR SCT002 BKN250 TEMPO 2314/2315 2SM BR BKN002 FM231500 15005KT P6SM BKN250 FM231600 15011G17KT P6SM FEW050 FM240000 15005KT P6SM SCT250
NOTAMs
Click for the latest NOTAMs
NOTAMs are issued by the DoD/FAA and will open in a separate window not controlled by AirNav.

 

 
 

Would you like to see your business listed on this page?

 If your business provides an interesting product or service to pilots, flight crews, aircraft, or users of the Lake Charles Office Heliport, you should consider listing it here.  To start the listing process, click on the button below
 
Add a business
 

Other Pages about Lake Charles Office Heliport

Update a link
 
Copyright © AirNav, LLC. All rights reserved. Privacy Policy  Contact